sensor_id;sensor_type;location;lat;lon;timestamp;pressure;altitude;pressure_sealevel;temperature;humidity
67052;BME280;53957;47.222;18.670;2022-09-02T00:00:04;100339.97;;;14.82;100.00
67052;BME280;53957;47.222;18.670;2022-09-02T00:03:10;100342.97;;;14.81;100.00
67052;BME280;53957;47.222;18.670;2022-09-02T00:06:14;100331.72;;;14.70;100.00
67052;BME280;53957;47.222;18.670;2022-09-02T00:09:19;100333.53;;;14.61;100.00
67052;BME280;53957;47.222;18.670;2022-09-02T00:12:22;100327.81;;;14.54;100.00
67052;BME280;53957;47.222;18.670;2022-09-02T00:15:25;100327.12;;;14.48;100.00
67052;BME280;53957;47.222;18.670;2022-09-02T00:18:29;100314.94;;;14.42;100.00
67052;BME280;53957;47.222;18.670;2022-09-02T00:21:33;100321.38;;;14.41;100.00
67052;BME280;53957;47.222;18.670;2022-09-02T00:24:36;100321.50;;;14.36;100.00
67052;BME280;53957;47.222;18.670;2022-09-02T00:27:39;100313.41;;;14.27;100.00
67052;BME280;53957;47.222;18.670;2022-09-02T00:30:45;100309.03;;;14.31;100.00
67052;BME280;53957;47.222;18.670;2022-09-02T00:33:47;100306.56;;;14.21;100.00
67052;BME280;53957;47.222;18.670;2022-09-02T00:36:53;100304.72;;;14.21;100.00
67052;BME280;53957;47.222;18.670;2022-09-02T00:39:56;100300.00;;;14.27;100.00
67052;BME280;53957;47.222;18.670;2022-09-02T00:43:00;100299.53;;;14.25;99.33
67052;BME280;53957;47.222;18.670;2022-09-02T00:46:04;100305.22;;;14.32;97.70
67052;BME280;53957;47.222;18.670;2022-09-02T00:49:13;100306.94;;;14.28;97.25
67052;BME280;53957;47.222;18.670;2022-09-02T00:52:20;100299.81;;;14.23;96.50
67052;BME280;53957;47.222;18.670;2022-09-02T00:55:29;100299.53;;;14.25;95.90
67052;BME280;53957;47.222;18.670;2022-09-02T00:58:33;100296.56;;;14.12;95.32
67052;BME280;53957;47.222;18.670;2022-09-02T01:01:38;100289.16;;;14.09;95.63
67052;BME280;53957;47.222;18.670;2022-09-02T01:04:41;100295.59;;;14.08;96.09
67052;BME280;53957;47.222;18.670;2022-09-02T01:07:45;100298.84;;;13.96;97.07
67052;BME280;53957;47.222;18.670;2022-09-02T01:10:48;100294.19;;;13.88;95.18
67052;BME280;53957;47.222;18.670;2022-09-02T01:13:51;100300.56;;;13.78;98.37
67052;BME280;53957;47.222;18.670;2022-09-02T01:16:55;100301.06;;;13.80;96.49
67052;BME280;53957;47.222;18.670;2022-09-02T01:20:05;100293.12;;;13.75;99.59
67052;BME280;53957;47.222;18.670;2022-09-02T01:23:09;100298.41;;;13.66;99.11
67052;BME280;53957;47.222;18.670;2022-09-02T01:26:13;100298.41;;;13.66;97.88
67052;BME280;53957;47.222;18.670;2022-09-02T01:29:16;100294.94;;;13.66;98.58
67052;BME280;53957;47.222;18.670;2022-09-02T01:32:21;100288.59;;;13.62;100.00
67052;BME280;53957;47.222;18.670;2022-09-02T01:35:24;100295.53;;;13.63;100.00
67052;BME280;53957;47.222;18.670;2022-09-02T01:38:27;100293.97;;;13.62;100.00
67052;BME280;53957;47.222;18.670;2022-09-02T01:41:31;100289.88;;;13.50;100.00
67052;BME280;53957;47.222;18.670;2022-09-02T01:44:35;100292.19;;;13.43;100.00
67052;BME280;53957;47.222;18.670;2022-09-02T01:47:45;100295.56;;;13.35;100.00
67052;BME280;53957;47.222;18.670;2022-09-02T01:50:53;100289.19;;;13.31;100.00
67052;BME280;53957;47.222;18.670;2022-09-02T01:53:57;100289.09;;;13.22;100.00
67052;BME280;53957;47.222;18.670;2022-09-02T01:57:00;100288.63;;;13.20;100.00
67052;BME280;53957;47.222;18.670;2022-09-02T02:00:05;100290.59;;;13.14;100.00
67052;BME280;53957;47.222;18.670;2022-09-02T02:03:14;100279.09;;;13.14;100.00
67052;BME280;53957;47.222;18.670;2022-09-02T02:06:17;100291.00;;;13.08;100.00
67052;BME280;53957;47.222;18.670;2022-09-02T02:09:21;100281.69;;;13.05;100.00
67052;BME280;53957;47.222;18.670;2022-09-02T02:12:25;100287.41;;;13.12;100.00
67052;BME280;53957;47.222;18.670;2022-09-02T02:15:29;100288.41;;;13.02;100.00
67052;BME280;53957;47.222;18.670;2022-09-02T02:18:31;100286.62;;;12.98;100.00
67052;BME280;53957;47.222;18.670;2022-09-02T02:21:34;100284.44;;;12.86;100.00
67052;BME280;53957;47.222;18.670;2022-09-02T02:24:37;100282.25;;;12.88;100.00
67052;BME280;53957;47.222;18.670;2022-09-02T02:27:40;100284.53;;;12.81;100.00
67052;BME280;53957;47.222;18.670;2022-09-02T02:30:45;100287.97;;;12.81;100.00
67052;BME280;53957;47.222;18.670;2022-09-02T02:33:49;100285.81;;;12.83;100.00
67052;BME280;53957;47.222;18.670;2022-09-02T02:36:53;100285.63;;;12.80;100.00
67052;BME280;53957;47.222;18.670;2022-09-02T02:39:56;100288.19;;;12.71;100.00
67052;BME280;53957;47.222;18.670;2022-09-02T02:43:00;100286.78;;;12.73;100.00
67052;BME280;53957;47.222;18.670;2022-09-02T02:46:04;100274.91;;;12.66;100.00
67052;BME280;53957;47.222;18.670;2022-09-02T02:49:09;100283.69;;;12.66;100.00
67052;BME280;53957;47.222;18.670;2022-09-02T02:52:13;100275.06;;;12.55;100.00
67052;BME280;53957;47.222;18.670;2022-09-02T02:55:17;100277.03;;;12.50;100.00
67052;BME280;53957;47.222;18.670;2022-09-02T02:58:20;100280.59;;;12.45;100.00
67052;BME280;53957;47.222;18.670;2022-09-02T03:01:25;100268.31;;;12.44;100.00
67052;BME280;53957;47.222;18.670;2022-09-02T03:04:28;100272.25;;;12.47;100.00
67052;BME280;53957;47.222;18.670;2022-09-02T03:07:32;100273.06;;;12.47;100.00
67052;BME280;53957;47.222;18.670;2022-09-02T03:10:38;100279.19;;;12.34;100.00
67052;BME280;53957;47.222;18.670;2022-09-02T03:13:43;100278.66;;;12.32;100.00
67052;BME280;53957;47.222;18.670;2022-09-02T03:16:46;100270.44;;;12.28;100.00
67052;BME280;53957;47.222;18.670;2022-09-02T03:19:50;100273.31;;;12.32;100.00
67052;BME280;53957;47.222;18.670;2022-09-02T03:22:55;100273.50;;;12.21;100.00
67052;BME280;53957;47.222;18.670;2022-09-02T03:25:59;100274.69;;;12.29;100.00
67052;BME280;53957;47.222;18.670;2022-09-02T03:29:03;100274.34;;;12.17;100.00
67052;BME280;53957;47.222;18.670;2022-09-02T03:32:06;100269.88;;;12.12;100.00
67052;BME280;53957;47.222;18.670;2022-09-02T03:35:14;100275.34;;;12.21;100.00
67052;BME280;53957;47.222;18.670;2022-09-02T03:38:19;100271.59;;;12.22;100.00
67052;BME280;53957;47.222;18.670;2022-09-02T03:41:22;100270.72;;;12.27;100.00
67052;BME280;53957;47.222;18.670;2022-09-02T03:44:26;100275.22;;;12.31;100.00
67052;BME280;53957;47.222;18.670;2022-09-02T03:47:29;100274.28;;;12.22;100.00
67052;BME280;53957;47.222;18.670;2022-09-02T03:50:37;100273.41;;;12.27;100.00
67052;BME280;53957;47.222;18.670;2022-09-02T03:53:42;100275.41;;;12.35;100.00
67052;BME280;53957;47.222;18.670;2022-09-02T03:56:45;100277.37;;;12.29;100.00
67052;BME280;53957;47.222;18.670;2022-09-02T03:59:48;100285.53;;;12.38;100.00
67052;BME280;53957;47.222;18.670;2022-09-02T04:02:52;100288.72;;;12.40;100.00
67052;BME280;53957;47.222;18.670;2022-09-02T04:05:58;100287.72;;;12.36;100.00
67052;BME280;53957;47.222;18.670;2022-09-02T04:09:01;100284.44;;;12.39;100.00
67052;BME280;53957;47.222;18.670;2022-09-02T04:12:05;100289.69;;;12.44;100.00
67052;BME280;53957;47.222;18.670;2022-09-02T04:15:10;100289.13;;;12.47;100.00
67052;BME280;53957;47.222;18.670;2022-09-02T04:18:15;100281.72;;;12.58;100.00
67052;BME280;53957;47.222;18.670;2022-09-02T04:21:19;100285.75;;;12.55;100.00
67052;BME280;53957;47.222;18.670;2022-09-02T04:24:22;100295.47;;;12.51;100.00
67052;BME280;53957;47.222;18.670;2022-09-02T04:27:26;100286.94;;;12.49;100.00
67052;BME280;53957;47.222;18.670;2022-09-02T04:30:29;100294.91;;;12.54;100.00
67052;BME280;53957;47.222;18.670;2022-09-02T04:33:34;100285.97;;;12.59;100.00
67052;BME280;53957;47.222;18.670;2022-09-02T04:36:37;100303.03;;;12.63;100.00
67052;BME280;53957;47.222;18.670;2022-09-02T04:39:41;100300.84;;;12.65;100.00
67052;BME280;53957;47.222;18.670;2022-09-02T04:42:45;100294.53;;;12.75;100.00
67052;BME280;53957;47.222;18.670;2022-09-02T04:45:49;100294.94;;;12.82;100.00
67052;BME280;53957;47.222;18.670;2022-09-02T04:48:53;100292.34;;;12.91;98.78
67052;BME280;53957;47.222;18.670;2022-09-02T04:51:58;100314.38;;;13.02;97.88
67052;BME280;53957;47.222;18.670;2022-09-02T04:55:02;100303.09;;;13.05;95.30
67052;BME280;53957;47.222;18.670;2022-09-02T04:58:08;100309.13;;;13.11;93.69
67052;BME280;53957;47.222;18.670;2022-09-02T05:01:14;100307.66;;;13.18;96.04
67052;BME280;53957;47.222;18.670;2022-09-02T05:04:18;100301.78;;;13.30;94.08
67052;BME280;53957;47.222;18.670;2022-09-02T05:07:22;100295.84;;;13.33;95.46
67052;BME280;53957;47.222;18.670;2022-09-02T05:10:25;100301.41;;;13.51;94.95
67052;BME280;53957;47.222;18.670;2022-09-02T05:13:29;100297.13;;;13.64;93.93
67052;BME280;53957;47.222;18.670;2022-09-02T05:16:35;100297.87;;;13.78;93.16
67052;BME280;53957;47.222;18.670;2022-09-02T05:19:40;100302.13;;;13.93;93.61
67052;BME280;53957;47.222;18.670;2022-09-02T05:22:43;100309.31;;;14.07;91.08
67052;BME280;53957;47.222;18.670;2022-09-02T05:25:49;100307.50;;;14.39;90.10
67052;BME280;53957;47.222;18.670;2022-09-02T05:28:52;100314.50;;;14.48;88.76
67052;BME280;53957;47.222;18.670;2022-09-02T05:31:55;100314.63;;;14.66;89.21
67052;BME280;53957;47.222;18.670;2022-09-02T05:34:59;100310.34;;;14.88;88.61
67052;BME280;53957;47.222;18.670;2022-09-02T05:38:02;100309.31;;;15.06;90.47
67052;BME280;53957;47.222;18.670;2022-09-02T05:41:07;100317.09;;;15.25;86.87
67052;BME280;53957;47.222;18.670;2022-09-02T05:44:11;100314.59;;;15.38;84.19
67052;BME280;53957;47.222;18.670;2022-09-02T05:47:14;100311.66;;;15.57;85.23
67052;BME280;53957;47.222;18.670;2022-09-02T05:50:18;100305.97;;;15.76;85.94
67052;BME280;53957;47.222;18.670;2022-09-02T05:53:22;100311.22;;;15.90;87.31
67052;BME280;53957;47.222;18.670;2022-09-02T05:56:29;100311.72;;;15.83;85.19
67052;BME280;53957;47.222;18.670;2022-09-02T05:59:32;100307.91;;;16.19;83.85
67052;BME280;53957;47.222;18.670;2022-09-02T06:02:38;100317.88;;;16.19;83.36
67052;BME280;53957;47.222;18.670;2022-09-02T06:05:55;100312.16;;;16.29;82.73
67052;BME280;53957;47.222;18.670;2022-09-02T06:09:01;100311.66;;;16.53;82.27
67052;BME280;53957;47.222;18.670;2022-09-02T06:12:06;100313.88;;;16.51;82.21
67052;BME280;53957;47.222;18.670;2022-09-02T06:15:10;100309.91;;;16.57;77.05
67052;BME280;53957;47.222;18.670;2022-09-02T06:18:16;100323.62;;;16.82;80.60
67052;BME280;53957;47.222;18.670;2022-09-02T06:21:20;100317.41;;;16.90;78.78
67052;BME280;53957;47.222;18.670;2022-09-02T06:24:26;100321.31;;;17.11;76.09
67052;BME280;53957;47.222;18.670;2022-09-02T06:27:29;100321.69;;;17.30;76.48
67052;BME280;53957;47.222;18.670;2022-09-02T06:30:38;100323.50;;;17.47;74.75
67052;BME280;53957;47.222;18.670;2022-09-02T06:33:44;100325.34;;;17.55;73.42
67052;BME280;53957;47.222;18.670;2022-09-02T06:36:48;100321.47;;;17.65;69.59
67052;BME280;53957;47.222;18.670;2022-09-02T06:39:53;100323.47;;;17.77;71.39
67052;BME280;53957;47.222;18.670;2022-09-02T08:07:53;100321.28;;;20.80;55.26
67052;BME280;53957;47.222;18.670;2022-09-02T08:10:56;100326.75;;;20.23;59.54
67052;BME280;53957;47.222;18.670;2022-09-02T08:13:59;100321.94;;;20.17;56.78
67052;BME280;53957;47.222;18.670;2022-09-02T08:17:04;100318.37;;;20.57;53.14
67052;BME280;53957;47.222;18.670;2022-09-02T08:20:09;100317.81;;;20.07;59.77
67052;BME280;53957;47.222;18.670;2022-09-02T08:23:14;100323.56;;;20.34;54.04
67052;BME280;53957;47.222;18.670;2022-09-02T08:26:37;100314.69;;;20.21;60.09
67052;BME280;53957;47.222;18.670;2022-09-02T08:29:40;100315.22;;;20.71;52.97
67052;BME280;53957;47.222;18.670;2022-09-02T08:32:42;100316.66;;;20.97;52.04
67052;BME280;53957;47.222;18.670;2022-09-02T08:35:45;100319.44;;;21.16;56.33
67052;BME280;53957;47.222;18.670;2022-09-02T08:38:49;100315.91;;;21.16;55.17
67052;BME280;53957;47.222;18.670;2022-09-02T08:42:18;100316.78;;;21.71;51.47
67052;BME280;53957;47.222;18.670;2022-09-02T08:48:50;100320.28;;;22.11;49.53
67052;BME280;53957;47.222;18.670;2022-09-02T08:52:00;100303.88;;;22.47;54.28
67052;BME280;53957;47.222;18.670;2022-09-02T08:55:06;100311.25;;;22.93;53.57
67052;BME280;53957;47.222;18.670;2022-09-02T08:58:17;100314.16;;;22.57;52.37
67052;BME280;53957;47.222;18.670;2022-09-02T09:12:09;100299.53;;;22.65;45.48
67052;BME280;53957;47.222;18.670;2022-09-02T09:15:24;100304.75;;;22.51;54.64
67052;BME280;53957;47.222;18.670;2022-09-02T09:18:38;100296.03;;;22.65;49.18
67052;BME280;53957;47.222;18.670;2022-09-02T09:21:43;100293.59;;;22.36;51.92
67052;BME280;53957;47.222;18.670;2022-09-02T09:24:48;100298.78;;;22.02;50.30
67052;BME280;53957;47.222;18.670;2022-09-02T09:27:51;100291.09;;;22.28;53.06
67052;BME280;53957;47.222;18.670;2022-09-02T09:30:54;100298.09;;;22.48;48.02
67052;BME280;53957;47.222;18.670;2022-09-02T09:34:00;100287.94;;;21.83;55.48
67052;BME280;53957;47.222;18.670;2022-09-02T09:37:02;100293.91;;;22.12;53.67
67052;BME280;53957;47.222;18.670;2022-09-02T09:43:28;100290.50;;;21.56;57.53
67052;BME280;53957;47.222;18.670;2022-09-02T09:46:32;100282.53;;;22.26;52.39
67052;BME280;53957;47.222;18.670;2022-09-02T09:49:36;100276.34;;;21.66;50.14
67052;BME280;53957;47.222;18.670;2022-09-02T09:52:40;100276.94;;;21.95;55.23
67052;BME280;53957;47.222;18.670;2022-09-02T09:59:39;100285.06;;;21.56;57.83
67052;BME280;53957;47.222;18.670;2022-09-02T10:02:50;100282.56;;;21.67;54.87
67052;BME280;53957;47.222;18.670;2022-09-02T10:05:56;100276.72;;;21.84;48.95
67052;BME280;53957;47.222;18.670;2022-09-02T10:09:01;100285.56;;;21.46;52.57
67052;BME280;53957;47.222;18.670;2022-09-02T10:12:11;100280.13;;;21.62;50.41
67052;BME280;53957;47.222;18.670;2022-09-02T10:15:15;100276.28;;;21.47;52.79
67052;BME280;53957;47.222;18.670;2022-09-02T10:18:55;100284.63;;;21.74;47.67
67052;BME280;53957;47.222;18.670;2022-09-02T10:25:39;100286.00;;;21.12;60.78
67052;BME280;53957;47.222;18.670;2022-09-02T10:35:44;100282.44;;;21.60;49.13
67052;BME280;53957;47.222;18.670;2022-09-02T10:38:48;100277.41;;;21.62;58.22
67052;BME280;53957;47.222;18.670;2022-09-02T10:41:54;100274.44;;;21.67;54.73
67052;BME280;53957;47.222;18.670;2022-09-02T11:01:02;100263.50;;;21.63;55.53
67052;BME280;53957;47.222;18.670;2022-09-02T11:07:18;100268.94;;;21.63;56.25
67052;BME280;53957;47.222;18.670;2022-09-02T11:10:39;100254.50;;;21.79;56.71
67052;BME280;53957;47.222;18.670;2022-09-02T11:17:06;100261.13;;;21.62;57.23
67052;BME280;53957;47.222;18.670;2022-09-02T11:23:54;100251.41;;;22.00;57.36
67052;BME280;53957;47.222;18.670;2022-09-02T11:34:09;100254.00;;;22.59;54.48
67052;BME280;53957;47.222;18.670;2022-09-02T11:37:27;100246.47;;;22.48;53.12
67052;BME280;53957;47.222;18.670;2022-09-02T11:40:37;100238.75;;;22.77;53.17
67052;BME280;53957;47.222;18.670;2022-09-02T11:43:47;100249.84;;;22.65;57.18
67052;BME280;53957;47.222;18.670;2022-09-02T11:53:50;100233.84;;;22.87;48.21
67052;BME280;53957;47.222;18.670;2022-09-02T11:56:59;100235.81;;;22.63;55.17
67052;BME280;53957;47.222;18.670;2022-09-02T12:00:06;100230.44;;;22.66;53.56
67052;BME280;53957;47.222;18.670;2022-09-02T12:03:17;100237.63;;;22.55;50.72
67052;BME280;53957;47.222;18.670;2022-09-02T12:13:48;100226.69;;;22.51;54.88
67052;BME280;53957;47.222;18.670;2022-09-02T12:17:07;100231.16;;;22.63;47.73
67052;BME280;53957;47.222;18.670;2022-09-02T12:29:59;100219.69;;;22.50;47.01
67052;BME280;53957;47.222;18.670;2022-09-02T12:33:09;100224.16;;;22.62;50.35
67052;BME280;53957;47.222;18.670;2022-09-02T12:42:45;100211.31;;;22.86;50.88
67052;BME280;53957;47.222;18.670;2022-09-02T12:45:50;100204.38;;;22.39;53.77
67052;BME280;53957;47.222;18.670;2022-09-02T12:49:04;100210.31;;;22.71;47.39
67052;BME280;53957;47.222;18.670;2022-09-02T12:55:38;100197.59;;;22.79;45.99
67052;BME280;53957;47.222;18.670;2022-09-02T12:58:49;100202.41;;;22.62;50.56
67052;BME280;53957;47.222;18.670;2022-09-02T13:08:43;100185.16;;;22.51;52.22
67052;BME280;53957;47.222;18.670;2022-09-02T13:33:13;100179.09;;;22.61;48.35
67052;BME280;53957;47.222;18.670;2022-09-02T13:36:25;100178.81;;;22.43;53.42
67052;BME280;53957;47.222;18.670;2022-09-02T13:39:29;100183.69;;;22.34;53.69
67052;BME280;53957;47.222;18.670;2022-09-02T13:42:32;100183.81;;;22.18;52.21
67052;BME280;53957;47.222;18.670;2022-09-02T13:45:35;100177.31;;;21.99;55.47
67052;BME280;53957;47.222;18.670;2022-09-02T13:48:39;100173.78;;;21.99;54.34
67052;BME280;53957;47.222;18.670;2022-09-02T13:51:42;100172.09;;;22.37;52.65
67052;BME280;53957;47.222;18.670;2022-09-02T13:54:50;100166.84;;;22.25;51.60
67052;BME280;53957;47.222;18.670;2022-09-02T13:58:07;100175.34;;;22.00;57.09
67052;BME280;53957;47.222;18.670;2022-09-02T14:01:41;100155.97;;;22.25;55.56
67052;BME280;53957;47.222;18.670;2022-09-02T14:04:44;100160.59;;;22.44;53.32
67052;BME280;53957;47.222;18.670;2022-09-02T14:07:52;100168.59;;;22.36;51.91
67052;BME280;53957;47.222;18.670;2022-09-02T14:10:56;100162.72;;;22.58;50.78
67052;BME280;53957;47.222;18.670;2022-09-02T14:13:59;100161.69;;;22.66;53.02
67052;BME280;53957;47.222;18.670;2022-09-02T14:17:24;100167.53;;;22.41;56.21
67052;BME280;53957;47.222;18.670;2022-09-02T14:20:27;100172.41;;;22.32;54.72
67052;BME280;53957;47.222;18.670;2022-09-02T14:23:31;100163.63;;;22.65;49.91
67052;BME280;53957;47.222;18.670;2022-09-02T14:26:41;100160.06;;;23.19;51.67
67052;BME280;53957;47.222;18.670;2022-09-02T14:29:46;100170.72;;;23.31;50.24
67052;BME280;53957;47.222;18.670;2022-09-02T14:39:27;100168.59;;;22.87;51.98
67052;BME280;53957;47.222;18.670;2022-09-02T14:42:30;100178.00;;;22.93;44.21
67052;BME280;53957;47.222;18.670;2022-09-02T14:45:33;100176.06;;;22.66;43.94
67052;BME280;53957;47.222;18.670;2022-09-02T14:48:37;100177.13;;;22.35;47.65
67052;BME280;53957;47.222;18.670;2022-09-02T14:51:45;100175.47;;;22.30;46.85
67052;BME280;53957;47.222;18.670;2022-09-02T14:54:51;100176.88;;;21.97;45.98
67052;BME280;53957;47.222;18.670;2022-09-02T14:58:01;100173.59;;;22.11;46.96
67052;BME280;53957;47.222;18.670;2022-09-02T15:01:04;100175.66;;;21.95;48.65
67052;BME280;53957;47.222;18.670;2022-09-02T15:04:10;100171.53;;;21.81;51.04
67052;BME280;53957;47.222;18.670;2022-09-02T15:07:16;100166.28;;;21.69;47.60
67052;BME280;53957;47.222;18.670;2022-09-02T15:10:19;100177.13;;;21.49;50.97
67052;BME280;53957;47.222;18.670;2022-09-02T15:13:26;100167.16;;;21.73;50.30
67052;BME280;53957;47.222;18.670;2022-09-02T15:16:31;100175.78;;;21.59;50.51
67052;BME280;53957;47.222;18.670;2022-09-02T15:19:34;100169.84;;;21.53;50.38
67052;BME280;53957;47.222;18.670;2022-09-02T15:22:37;100171.44;;;21.35;54.26
67052;BME280;53957;47.222;18.670;2022-09-02T15:25:40;100166.13;;;21.03;56.64
67052;BME280;53957;47.222;18.670;2022-09-02T15:28:43;100174.81;;;21.12;51.94
67052;BME280;53957;47.222;18.670;2022-09-02T15:31:50;100170.03;;;21.05;51.62
67052;BME280;53957;47.222;18.670;2022-09-02T15:34:53;100182.44;;;20.71;55.12
67052;BME280;53957;47.222;18.670;2022-09-02T18:43:28;100291.13;;;16.05;95.33
67052;BME280;53957;47.222;18.670;2022-09-02T18:46:10;100292.38;;;16.07;97.84
67052;BME280;53957;47.222;18.670;2022-09-02T18:49:16;100296.50;;;16.14;98.10
67052;BME280;53957;47.222;18.670;2022-09-02T18:52:19;100305.22;;;16.10;97.27
67052;BME280;53957;47.222;18.670;2022-09-02T18:55:34;100302.06;;;15.91;97.74
67052;BME280;53957;47.222;18.670;2022-09-02T18:58:41;100310.25;;;15.68;99.68
67052;BME280;53957;47.222;18.670;2022-09-02T19:01:49;100308.94;;;15.48;100.00
67052;BME280;53957;47.222;18.670;2022-09-02T19:05:03;100311.44;;;15.44;100.00
67052;BME280;53957;47.222;18.670;2022-09-02T19:08:17;100319.97;;;15.29;100.00
67052;BME280;53957;47.222;18.670;2022-09-02T19:11:36;100319.44;;;15.18;100.00
67052;BME280;53957;47.222;18.670;2022-09-02T19:14:40;100316.72;;;15.09;100.00
67052;BME280;53957;47.222;18.670;2022-09-02T19:17:43;100317.81;;;15.08;100.00
67052;BME280;53957;47.222;18.670;2022-09-02T19:20:46;100313.44;;;15.12;100.00
67052;BME280;53957;47.222;18.670;2022-09-02T19:23:50;100313.66;;;14.93;100.00
67052;BME280;53957;47.222;18.670;2022-09-02T19:27:00;100315.37;;;14.89;100.00
67052;BME280;53957;47.222;18.670;2022-09-02T19:30:17;100315.47;;;14.75;100.00
67052;BME280;53957;47.222;18.670;2022-09-02T19:33:20;100316.34;;;14.62;100.00
67052;BME280;53957;47.222;18.670;2022-09-02T19:36:26;100318.66;;;14.55;100.00
67052;BME280;53957;47.222;18.670;2022-09-02T19:39:33;100319.44;;;14.55;100.00
67052;BME280;53957;47.222;18.670;2022-09-02T19:42:37;100324.16;;;14.49;100.00
67052;BME280;53957;47.222;18.670;2022-09-02T19:45:40;100320.59;;;14.40;100.00
67052;BME280;53957;47.222;18.670;2022-09-02T19:48:43;100321.94;;;14.29;100.00
67052;BME280;53957;47.222;18.670;2022-09-02T19:51:46;100310.59;;;14.32;100.00
67052;BME280;53957;47.222;18.670;2022-09-02T19:54:50;100317.31;;;14.43;100.00
67052;BME280;53957;47.222;18.670;2022-09-02T19:57:54;100311.03;;;14.25;100.00
67052;BME280;53957;47.222;18.670;2022-09-02T20:00:57;100311.94;;;14.21;100.00
67052;BME280;53957;47.222;18.670;2022-09-02T20:04:01;100317.25;;;14.12;100.00
67052;BME280;53957;47.222;18.670;2022-09-02T20:07:04;100319.44;;;14.10;100.00
67052;BME280;53957;47.222;18.670;2022-09-02T20:10:07;100315.06;;;14.14;100.00
67052;BME280;53957;47.222;18.670;2022-09-02T20:13:13;100315.47;;;14.07;100.00
67052;BME280;53957;47.222;18.670;2022-09-02T20:16:22;100317.56;;;14.10;100.00
67052;BME280;53957;47.222;18.670;2022-09-02T20:19:26;100325.47;;;14.15;100.00
67052;BME280;53957;47.222;18.670;2022-09-02T20:22:29;100312.06;;;14.15;100.00
67052;BME280;53957;47.222;18.670;2022-09-02T20:26:26;100318.03;;;14.12;100.00
67052;BME280;53957;47.222;18.670;2022-09-02T20:35:47;100323.88;;;13.92;100.00
67052;BME280;53957;47.222;18.670;2022-09-02T20:39:02;100314.44;;;13.94;100.00
67052;BME280;53957;47.222;18.670;2022-09-02T20:42:53;100310.94;;;13.94;100.00
67052;BME280;53957;47.222;18.670;2022-09-02T20:46:11;100324.00;;;13.87;100.00
67052;BME280;53957;47.222;18.670;2022-09-02T21:02:25;100334.22;;;13.84;100.00
67052;BME280;53957;47.222;18.670;2022-09-02T21:05:51;100334.44;;;13.74;100.00
67052;BME280;53957;47.222;18.670;2022-09-02T21:12:27;100334.63;;;13.64;100.00
67052;BME280;53957;47.222;18.670;2022-09-02T21:15:43;100329.91;;;13.61;100.00
67052;BME280;53957;47.222;18.670;2022-09-02T21:19:14;100334.75;;;13.59;100.00
67052;BME280;53957;47.222;18.670;2022-09-02T21:22:29;100338.03;;;13.56;100.00
67052;BME280;53957;47.222;18.670;2022-09-02T21:25:41;100337.12;;;13.60;100.00
67052;BME280;53957;47.222;18.670;2022-09-02T21:32:27;100344.56;;;13.49;100.00
67052;BME280;53957;47.222;18.670;2022-09-02T21:35:39;100344.16;;;13.28;100.00
67052;BME280;53957;47.222;18.670;2022-09-02T21:38:45;100339.41;;;13.25;100.00
